Inverrary, Florida
Current Conditions -  °F | °C
As of 2:53 PM on Monday 22 Dec 2014 (Local Time) from KFXE Reporting Station
Clear Clear  
Wind Chill: 82°   Ceiling: Unl
Heat Index: 85°   Visibility: 10mi
Dew Point: 68°   Wind: 9mph
Humidity: 62%   Direction: 140°SE
Pressure: 29.94"   Gusts: NA
Location:  26.1819°N, 80.2274°W
Report Text: KFXE 221953Z 14008KT 10SM CLR 28/20 A2994 RMK AO2 SLP140 T02780200
Loading
Personal Weather Stations






























Interactive Weather Map New forecast layout! Learn more

10-Day Weather Forecast

Advertisements
Track Severe Weather on mobile